sensor_id;sensor_type;location;lat;lon;timestamp;pressure;altitude;pressure_sealevel;temperature;humidity
29315;BME280;16320;53.954;9.506;2022-12-24T00:01:53;100288.16;;;3.70;100.00
29315;BME280;16320;53.954;9.506;2022-12-24T00:04:57;100286.47;;;3.69;100.00
29315;BME280;16320;53.954;9.506;2022-12-24T00:08:04;100299.38;;;3.72;100.00
29315;BME280;16320;53.954;9.506;2022-12-24T00:11:09;100297.75;;;3.68;100.00
29315;BME280;16320;53.954;9.506;2022-12-24T00:14:14;100288.25;;;3.67;100.00
29315;BME280;16320;53.954;9.506;2022-12-24T00:17:18;100296.88;;;3.69;100.00
29315;BME280;16320;53.954;9.506;2022-12-24T00:20:22;100303.56;;;3.76;100.00
29315;BME280;16320;53.954;9.506;2022-12-24T00:23:28;100300.34;;;3.68;100.00
29315;BME280;16320;53.954;9.506;2022-12-24T00:26:33;100299.44;;;3.71;100.00
29315;BME280;16320;53.954;9.506;2022-12-24T00:29:38;100302.06;;;3.69;100.00
29315;BME280;16320;53.954;9.506;2022-12-24T00:32:42;100297.06;;;3.63;100.00
29315;BME280;16320;53.954;9.506;2022-12-24T00:35:50;100297.75;;;3.68;100.00
29315;BME280;16320;53.954;9.506;2022-12-24T00:38:55;100291.81;;;3.64;100.00
29315;BME280;16320;53.954;9.506;2022-12-24T00:41:59;100294.41;;;3.64;100.00
29315;BME280;16320;53.954;9.506;2022-12-24T00:45:04;100299.72;;;3.60;100.00
29315;BME280;16320;53.954;9.506;2022-12-24T00:48:09;100300.00;;;3.51;100.00
29315;BME280;16320;53.954;9.506;2022-12-24T00:51:14;100302.59;;;3.51;100.00
29315;BME280;16320;53.954;9.506;2022-12-24T00:54:19;100302.50;;;3.54;100.00
29315;BME280;16320;53.954;9.506;2022-12-24T00:57:23;100300.88;;;3.51;100.00
29315;BME280;16320;53.954;9.506;2022-12-24T01:00:27;100300.81;;;3.53;100.00
29315;BME280;16320;53.954;9.506;2022-12-24T01:03:33;100306.06;;;3.51;100.00
29315;BME280;16320;53.954;9.506;2022-12-24T01:06:38;100306.81;;;3.55;100.00
29315;BME280;16320;53.954;9.506;2022-12-24T01:09:42;100311.38;;;3.46;100.00
29315;BME280;16320;53.954;9.506;2022-12-24T01:12:46;100311.31;;;3.50;100.00
29315;BME280;16320;53.954;9.506;2022-12-24T01:15:51;100318.19;;;3.51;100.00
29315;BME280;16320;53.954;9.506;2022-12-24T01:18:56;100312.97;;;3.51;100.00
29315;BME280;16320;53.954;9.506;2022-12-24T01:22:00;100316.50;;;3.50;100.00
29315;BME280;16320;53.954;9.506;2022-12-24T01:25:05;100316.44;;;3.51;100.00
29315;BME280;16320;53.954;9.506;2022-12-24T01:28:09;100323.38;;;3.51;100.00
29315;BME280;16320;53.954;9.506;2022-12-24T01:31:17;100326.78;;;3.53;100.00
29315;BME280;16320;53.954;9.506;2022-12-24T01:34:21;100328.38;;;3.57;100.00
29315;BME280;16320;53.954;9.506;2022-12-24T01:37:26;100327.69;;;3.52;100.00
29315;BME280;16320;53.954;9.506;2022-12-24T01:40:30;100323.28;;;3.54;100.00
29315;BME280;16320;53.954;9.506;2022-12-24T01:43:54;100321.41;;;3.59;100.00
29315;BME280;16320;53.954;9.506;2022-12-24T01:47:15;100327.41;;;3.61;100.00
29315;BME280;16320;53.954;9.506;2022-12-24T01:50:20;100332.53;;;3.64;100.00
29315;BME280;16320;53.954;9.506;2022-12-24T01:53:25;100338.59;;;3.63;100.00
29315;BME280;16320;53.954;9.506;2022-12-24T01:56:30;100330.09;;;3.58;100.00
29315;BME280;16320;53.954;9.506;2022-12-24T01:59:36;100327.59;;;3.55;100.00
29315;BME280;16320;53.954;9.506;2022-12-24T02:02:45;100331.88;;;3.56;100.00
29315;BME280;16320;53.954;9.506;2022-12-24T02:05:54;100338.84;;;3.54;100.00
29315;BME280;16320;53.954;9.506;2022-12-24T02:09:00;100337.97;;;3.55;100.00
29315;BME280;16320;53.954;9.506;2022-12-24T02:12:06;100343.97;;;3.57;100.00
29315;BME280;16320;53.954;9.506;2022-12-24T02:15:13;100348.19;;;3.61;100.00
29315;BME280;16320;53.954;9.506;2022-12-24T02:18:29;100354.19;;;3.63;100.00
29315;BME280;16320;53.954;9.506;2022-12-24T02:22:17;100359.47;;;3.60;100.00
29315;BME280;16320;53.954;9.506;2022-12-24T02:37:04;100366.47;;;3.58;100.00
29315;BME280;16320;53.954;9.506;2022-12-24T02:40:18;100366.38;;;3.61;100.00
29315;BME280;16320;53.954;9.506;2022-12-24T02:43:32;100379.41;;;3.59;100.00
29315;BME280;16320;53.954;9.506;2022-12-24T02:46:38;100380.25;;;3.60;100.00
29315;BME280;16320;53.954;9.506;2022-12-24T02:49:46;100382.84;;;3.60;100.00
29315;BME280;16320;53.954;9.506;2022-12-24T02:52:51;100386.16;;;3.65;100.00
29315;BME280;16320;53.954;9.506;2022-12-24T03:03:08;100383.56;;;3.65;100.00
29315;BME280;16320;53.954;9.506;2022-12-24T03:10:02;100396.66;;;3.60;100.00
29315;BME280;16320;53.954;9.506;2022-12-24T03:13:16;100399.13;;;3.65;100.00
29315;BME280;16320;53.954;9.506;2022-12-24T03:16:24;100408.69;;;3.64;100.00
29315;BME280;16320;53.954;9.506;2022-12-24T03:19:30;100397.59;;;3.59;100.00
29315;BME280;16320;53.954;9.506;2022-12-24T03:22:36;100411.31;;;3.63;100.00
29315;BME280;16320;53.954;9.506;2022-12-24T03:25:43;100416.34;;;3.69;100.00
29315;BME280;16320;53.954;9.506;2022-12-24T03:28:48;100416.44;;;3.66;100.00
29315;BME280;16320;53.954;9.506;2022-12-24T03:32:00;100418.31;;;3.61;100.00
29315;BME280;16320;53.954;9.506;2022-12-24T03:35:06;100427.00;;;3.60;100.00
29315;BME280;16320;53.954;9.506;2022-12-24T03:38:12;100440.03;;;3.58;100.00
29315;BME280;16320;53.954;9.506;2022-12-24T03:41:16;100433.03;;;3.60;100.00
29315;BME280;16320;53.954;9.506;2022-12-24T03:44:20;100439.09;;;3.61;100.00
29315;BME280;16320;53.954;9.506;2022-12-24T03:47:24;100440.84;;;3.59;100.00
29315;BME280;16320;53.954;9.506;2022-12-24T03:50:29;100444.44;;;3.55;100.00
29315;BME280;16320;53.954;9.506;2022-12-24T03:53:33;100450.31;;;3.61;100.00
29315;BME280;16320;53.954;9.506;2022-12-24T03:56:37;100443.38;;;3.62;100.00
29315;BME280;16320;53.954;9.506;2022-12-24T03:59:41;100445.34;;;3.54;100.00
29315;BME280;16320;53.954;9.506;2022-12-24T04:02:46;100448.66;;;3.59;100.00
29315;BME280;16320;53.954;9.506;2022-12-24T04:06:09;100459.00;;;3.60;100.00
29315;BME280;16320;53.954;9.506;2022-12-24T04:09:14;100460.78;;;3.58;100.00
29315;BME280;16320;53.954;9.506;2022-12-24T04:12:19;100465.06;;;3.61;100.00
29315;BME280;16320;53.954;9.506;2022-12-24T04:15:23;100458.88;;;3.65;100.00
29315;BME280;16320;53.954;9.506;2022-12-24T04:18:28;100454.59;;;3.64;100.00
29315;BME280;16320;53.954;9.506;2022-12-24T04:21:32;100458.03;;;3.64;100.00
29315;BME280;16320;53.954;9.506;2022-12-24T04:24:37;100462.50;;;3.59;100.00
29315;BME280;16320;53.954;9.506;2022-12-24T04:27:41;100464.31;;;3.56;100.00
29315;BME280;16320;53.954;9.506;2022-12-24T04:30:45;100466.09;;;3.54;100.00
29315;BME280;16320;53.954;9.506;2022-12-24T04:33:51;100472.97;;;3.56;100.00
29315;BME280;16320;53.954;9.506;2022-12-24T04:36:56;100474.78;;;3.54;100.00
29315;BME280;16320;53.954;9.506;2022-12-24T04:40:01;100480.81;;;3.55;100.00
29315;BME280;16320;53.954;9.506;2022-12-24T04:43:06;100481.72;;;3.52;100.00
29315;BME280;16320;53.954;9.506;2022-12-24T04:46:15;100489.41;;;3.57;100.00
29315;BME280;16320;53.954;9.506;2022-12-24T04:49:21;100493.81;;;3.53;100.00
29315;BME280;16320;53.954;9.506;2022-12-24T04:52:26;100491.03;;;3.61;100.00
29315;BME280;16320;53.954;9.506;2022-12-24T04:55:31;100493.75;;;3.56;100.00
29315;BME280;16320;53.954;9.506;2022-12-24T04:58:35;100490.28;;;3.56;100.00
29315;BME280;16320;53.954;9.506;2022-12-24T05:01:40;100492.78;;;3.59;100.00
29315;BME280;16320;53.954;9.506;2022-12-24T05:04:44;100491.88;;;3.61;100.00
29315;BME280;16320;53.954;9.506;2022-12-24T05:07:49;100492.78;;;3.59;100.00
29315;BME280;16320;53.954;9.506;2022-12-24T05:10:57;100493.63;;;3.61;100.00
29315;BME280;16320;53.954;9.506;2022-12-24T05:14:02;100501.25;;;3.67;100.00
29315;BME280;16320;53.954;9.506;2022-12-24T05:17:07;100501.44;;;3.61;100.00
29315;BME280;16320;53.954;9.506;2022-12-24T05:20:11;100497.09;;;3.60;100.00
29315;BME280;16320;53.954;9.506;2022-12-24T05:23:23;100503.97;;;3.62;100.00
29315;BME280;16320;53.954;9.506;2022-12-24T05:26:54;100498.63;;;3.67;100.00
29315;BME280;16320;53.954;9.506;2022-12-24T05:30:00;100499.72;;;3.60;100.00
29315;BME280;16320;53.954;9.506;2022-12-24T05:33:04;100510.09;;;3.60;100.00
29315;BME280;16320;53.954;9.506;2022-12-24T05:36:09;100510.97;;;3.59;100.00
29315;BME280;16320;53.954;9.506;2022-12-24T05:39:15;100513.50;;;3.62;100.00
29315;BME280;16320;53.954;9.506;2022-12-24T05:42:20;100522.00;;;3.67;100.00
29315;BME280;16320;53.954;9.506;2022-12-24T05:45:25;100525.59;;;3.63;100.00
29315;BME280;16320;53.954;9.506;2022-12-24T05:48:29;100523.09;;;3.60;100.00
29315;BME280;16320;53.954;9.506;2022-12-24T05:51:34;100532.59;;;3.61;100.00
29315;BME280;16320;53.954;9.506;2022-12-24T05:54:39;100525.44;;;3.69;100.00
29315;BME280;16320;53.954;9.506;2022-12-24T05:57:44;100525.53;;;3.66;100.00
29315;BME280;16320;53.954;9.506;2022-12-24T06:00:52;100530.88;;;3.60;100.00
29315;BME280;16320;53.954;9.506;2022-12-24T06:03:57;100529.09;;;3.62;100.00
29315;BME280;16320;53.954;9.506;2022-12-24T06:07:01;100534.28;;;3.62;100.00
29315;BME280;16320;53.954;9.506;2022-12-24T06:10:07;100527.41;;;3.61;100.00
29315;BME280;16320;53.954;9.506;2022-12-24T06:13:12;100529.81;;;3.67;100.00
29315;BME280;16320;53.954;9.506;2022-12-24T06:16:18;100533.28;;;3.67;100.00
29315;BME280;16320;53.954;9.506;2022-12-24T06:19:24;100526.25;;;3.71;100.00
29315;BME280;16320;53.954;9.506;2022-12-24T06:22:29;100530.69;;;3.67;100.00
29315;BME280;16320;53.954;9.506;2022-12-24T06:25:34;100537.59;;;3.67;100.00
29315;BME280;16320;53.954;9.506;2022-12-24T06:28:38;100535.88;;;3.67;100.00
29315;BME280;16320;53.954;9.506;2022-12-24T06:31:43;100544.50;;;3.68;100.00
29315;BME280;16320;53.954;9.506;2022-12-24T06:34:48;100540.34;;;3.62;100.00
29315;BME280;16320;53.954;9.506;2022-12-24T06:37:52;100547.06;;;3.70;100.00
29315;BME280;16320;53.954;9.506;2022-12-24T06:40:56;100546.22;;;3.69;100.00
29315;BME280;16320;53.954;9.506;2022-12-24T06:44:00;100544.63;;;3.63;100.00
29315;BME280;16320;53.954;9.506;2022-12-24T06:47:05;100554.09;;;3.66;100.00
29315;BME280;16320;53.954;9.506;2022-12-24T06:50:10;100550.59;;;3.67;100.00
29315;BME280;16320;53.954;9.506;2022-12-24T06:53:15;100554.03;;;3.69;100.00
29315;BME280;16320;53.954;9.506;2022-12-24T06:56:20;100560.09;;;3.68;100.00
29315;BME280;16320;53.954;9.506;2022-12-24T06:59:25;100562.69;;;3.68;100.00
29315;BME280;16320;53.954;9.506;2022-12-24T07:02:29;100579.25;;;3.64;100.00
29315;BME280;16320;53.954;9.506;2022-12-24T07:05:34;100578.25;;;3.70;100.00
29315;BME280;16320;53.954;9.506;2022-12-24T07:08:38;100586.72;;;3.76;100.00
29315;BME280;16320;53.954;9.506;2022-12-24T07:11:42;100586.06;;;3.68;100.00
29315;BME280;16320;53.954;9.506;2022-12-24T07:14:46;100595.59;;;3.69;100.00
29315;BME280;16320;53.954;9.506;2022-12-24T07:17:51;100596.31;;;3.74;100.00
29315;BME280;16320;53.954;9.506;2022-12-24T07:20:56;100601.47;;;3.76;100.00
29315;BME280;16320;53.954;9.506;2022-12-24T07:24:01;100598.00;;;3.75;100.00
29315;BME280;16320;53.954;9.506;2022-12-24T07:27:05;100606.72;;;3.74;100.00
29315;BME280;16320;53.954;9.506;2022-12-24T07:30:10;100614.47;;;3.76;100.00
29315;BME280;16320;53.954;9.506;2022-12-24T07:33:15;100608.28;;;3.80;100.00
29315;BME280;16320;53.954;9.506;2022-12-24T07:36:20;100603.88;;;3.83;100.00
29315;BME280;16320;53.954;9.506;2022-12-24T07:39:25;100611.56;;;3.87;100.00
29315;BME280;16320;53.954;9.506;2022-12-24T07:42:30;100622.06;;;3.83;100.00
29315;BME280;16320;53.954;9.506;2022-12-24T07:45:34;100627.16;;;3.87;100.00
29315;BME280;16320;53.954;9.506;2022-12-24T07:48:39;100634.19;;;3.83;100.00
29315;BME280;16320;53.954;9.506;2022-12-24T07:51:44;100628.09;;;3.84;100.00
29315;BME280;16320;53.954;9.506;2022-12-24T07:54:48;100628.16;;;3.82;100.00
29315;BME280;16320;53.954;9.506;2022-12-24T07:57:52;100648.13;;;3.80;100.00
29315;BME280;16320;53.954;9.506;2022-12-24T08:00:58;100656.72;;;3.82;100.00
29315;BME280;16320;53.954;9.506;2022-12-24T08:04:04;100653.25;;;3.83;100.00
29315;BME280;16320;53.954;9.506;2022-12-24T08:07:09;100648.06;;;3.83;100.00
29315;BME280;16320;53.954;9.506;2022-12-24T08:10:14;100647.19;;;3.83;100.00
29315;BME280;16320;53.954;9.506;2022-12-24T08:13:18;100648.75;;;3.90;100.00
29315;BME280;16320;53.954;9.506;2022-12-24T08:16:23;100647.03;;;3.89;100.00
29315;BME280;16320;53.954;9.506;2022-12-24T08:19:28;100649.66;;;3.88;100.00
29315;BME280;16320;53.954;9.506;2022-12-24T08:22:32;100635.81;;;3.87;100.00
29315;BME280;16320;53.954;9.506;2022-12-24T08:25:37;100644.47;;;3.88;100.00
29315;BME280;16320;53.954;9.506;2022-12-24T08:28:45;100658.34;;;3.87;100.00
29315;BME280;16320;53.954;9.506;2022-12-24T08:31:49;100666.97;;;3.89;100.00
29315;BME280;16320;53.954;9.506;2022-12-24T08:34:54;100669.59;;;3.87;100.00
29315;BME280;16320;53.954;9.506;2022-12-24T08:37:59;100675.50;;;3.94;100.00
29315;BME280;16320;53.954;9.506;2022-12-24T08:41:04;100670.22;;;3.97;100.00
29315;BME280;16320;53.954;9.506;2022-12-24T08:44:09;100673.84;;;3.90;100.00
29315;BME280;16320;53.954;9.506;2022-12-24T08:47:13;100667.78;;;3.91;100.00
29315;BME280;16320;53.954;9.506;2022-12-24T08:50:17;100673.78;;;3.93;100.00
29315;BME280;16320;53.954;9.506;2022-12-24T08:53:22;100680.63;;;3.97;100.00
29315;BME280;16320;53.954;9.506;2022-12-24T08:56:26;100679.06;;;3.90;100.00
29315;BME280;16320;53.954;9.506;2022-12-24T08:59:31;100684.19;;;3.93;100.00
29315;BME280;16320;53.954;9.506;2022-12-24T09:02:35;100693.72;;;3.92;100.00
29315;BME280;16320;53.954;9.506;2022-12-24T09:05:40;100701.50;;;3.94;100.00
29315;BME280;16320;53.954;9.506;2022-12-24T09:08:47;100707.31;;;4.03;100.00
29315;BME280;16320;53.954;9.506;2022-12-24T09:11:53;100713.34;;;4.04;100.00
29315;BME280;16320;53.954;9.506;2022-12-24T09:14:58;100716.03;;;4.01;100.00
29315;BME280;16320;53.954;9.506;2022-12-24T09:18:07;100717.69;;;4.05;100.00
29315;BME280;16320;53.954;9.506;2022-12-24T09:21:13;100721.09;;;4.07;100.00
29315;BME280;16320;53.954;9.506;2022-12-24T09:24:18;100725.41;;;4.08;100.00
29315;BME280;16320;53.954;9.506;2022-12-24T09:27:23;100743.59;;;4.08;100.00
29315;BME280;16320;53.954;9.506;2022-12-24T09:30:27;100751.25;;;4.14;100.00
29315;BME280;16320;53.954;9.506;2022-12-24T09:33:35;100753.78;;;4.16;100.00
29315;BME280;16320;53.954;9.506;2022-12-24T09:36:40;100759.81;;;4.18;100.00
29315;BME280;16320;53.954;9.506;2022-12-24T09:39:44;100761.72;;;4.11;100.00
29315;BME280;16320;53.954;9.506;2022-12-24T09:42:52;100766.03;;;4.11;100.00
29315;BME280;16320;53.954;9.506;2022-12-24T09:46:19;100765.97;;;4.14;100.00
29315;BME280;16320;53.954;9.506;2022-12-24T09:49:38;100778.81;;;4.20;100.00
29315;BME280;16320;53.954;9.506;2022-12-24T09:52:44;100773.59;;;4.21;100.00
29315;BME280;16320;53.954;9.506;2022-12-24T09:55:57;100777.09;;;4.19;100.00
29315;BME280;16320;53.954;9.506;2022-12-24T09:59:10;100781.38;;;4.21;100.00
29315;BME280;16320;53.954;9.506;2022-12-24T10:02:18;100782.06;;;4.30;100.00
29315;BME280;16320;53.954;9.506;2022-12-24T10:05:41;100785.38;;;4.35;100.00
29315;BME280;16320;53.954;9.506;2022-12-24T10:09:20;100778.53;;;4.32;100.00
29315;BME280;16320;53.954;9.506;2022-12-24T10:12:36;100784.75;;;4.25;100.00
29315;BME280;16320;53.954;9.506;2022-12-24T10:16:28;100789.03;;;4.28;100.00
29315;BME280;16320;53.954;9.506;2022-12-24T10:23:27;100797.59;;;4.33;100.00
29315;BME280;16320;53.954;9.506;2022-12-24T10:26:51;100790.53;;;4.38;100.00
29315;BME280;16320;53.954;9.506;2022-12-24T10:30:06;100797.44;;;4.39;100.00
29315;BME280;16320;53.954;9.506;2022-12-24T10:33:47;100792.91;;;4.47;100.00
29315;BME280;16320;53.954;9.506;2022-12-24T10:36:53;100792.94;;;4.46;100.00
29315;BME280;16320;53.954;9.506;2022-12-24T10:39:59;100803.22;;;4.50;100.00
29315;BME280;16320;53.954;9.506;2022-12-24T10:43:15;100804.03;;;4.52;100.00
29315;BME280;16320;53.954;9.506;2022-12-24T10:46:36;100795.34;;;4.53;100.00
29315;BME280;16320;53.954;9.506;2022-12-24T10:49:59;100800.75;;;4.46;100.00
29315;BME280;16320;53.954;9.506;2022-12-24T10:53:46;100818.03;;;4.47;100.00
29315;BME280;16320;53.954;9.506;2022-12-24T10:56:59;100817.88;;;4.53;100.00
29315;BME280;16320;53.954;9.506;2022-12-24T11:00:17;100816.28;;;4.49;100.00
29315;BME280;16320;53.954;9.506;2022-12-24T11:03:40;100812.91;;;4.45;100.00
29315;BME280;16320;53.954;9.506;2022-12-24T11:10:06;100806.63;;;4.52;100.00
29315;BME280;16320;53.954;9.506;2022-12-24T11:16:55;100792.84;;;4.49;100.00
29315;BME280;16320;53.954;9.506;2022-12-24T11:20:00;100800.63;;;4.50;100.00
29315;BME280;16320;53.954;9.506;2022-12-24T11:23:15;100808.97;;;4.63;100.00
29315;BME280;16320;53.954;9.506;2022-12-24T11:26:30;100803.63;;;4.68;100.00
29315;BME280;16320;53.954;9.506;2022-12-24T11:29:34;100797.34;;;4.76;100.00
29315;BME280;16320;53.954;9.506;2022-12-24T11:32:46;100792.94;;;4.79;100.00
29315;BME280;16320;53.954;9.506;2022-12-24T11:35:56;100791.41;;;4.71;100.00
29315;BME280;16320;53.954;9.506;2022-12-24T11:39:04;100797.34;;;4.76;100.00
29315;BME280;16320;53.954;9.506;2022-12-24T11:42:36;100795.75;;;4.71;100.00
29315;BME280;16320;53.954;9.506;2022-12-24T11:45:56;100791.28;;;4.76;100.00
29315;BME280;16320;53.954;9.506;2022-12-24T11:49:29;100794.09;;;4.68;100.00
29315;BME280;16320;53.954;9.506;2022-12-24T11:52:34;100797.53;;;4.69;100.00
29315;BME280;16320;53.954;9.506;2022-12-24T11:55:43;100792.91;;;4.80;100.00
29315;BME280;16320;53.954;9.506;2022-12-24T11:58:54;100794.78;;;4.75;100.00
29315;BME280;16320;53.954;9.506;2022-12-24T12:02:27;100796.28;;;4.84;100.00
29315;BME280;16320;53.954;9.506;2022-12-24T12:05:34;100790.19;;;4.85;100.00
29315;BME280;16320;53.954;9.506;2022-12-24T12:08:42;100789.03;;;4.95;100.00
29315;BME280;16320;53.954;9.506;2022-12-24T12:11:53;100786.38;;;4.97;100.00
29315;BME280;16320;53.954;9.506;2022-12-24T12:15:21;100794.19;;;4.97;100.00
29315;BME280;16320;53.954;9.506;2022-12-24T12:18:37;100801.75;;;5.06;100.00
29315;BME280;16320;53.954;9.506;2022-12-24T12:21:45;100805.25;;;5.05;100.00
29315;BME280;16320;53.954;9.506;2022-12-24T12:24:52;100812.97;;;5.08;100.00
29315;BME280;16320;53.954;9.506;2022-12-24T12:28:05;100817.25;;;5.10;100.00
29315;BME280;16320;53.954;9.506;2022-12-24T12:34:43;100818.88;;;5.14;100.00
29315;BME280;16320;53.954;9.506;2022-12-24T12:38:20;100815.47;;;5.12;100.00
29315;BME280;16320;53.954;9.506;2022-12-24T12:41:59;100816.16;;;5.19;100.00
29315;BME280;16320;53.954;9.506;2022-12-24T12:52:39;100819.25;;;5.32;100.00
29315;BME280;16320;53.954;9.506;2022-12-24T12:56:06;100827.97;;;5.31;100.00
29315;BME280;16320;53.954;9.506;2022-12-24T12:59:31;100831.25;;;5.38;100.00
29315;BME280;16320;53.954;9.506;2022-12-24T13:20:33;100867.72;;;5.38;100.00
29315;BME280;16320;53.954;9.506;2022-12-24T13:23:39;100875.41;;;5.42;100.00
29315;BME280;16320;53.954;9.506;2022-12-24T13:27:30;100883.06;;;5.48;100.00
29315;BME280;16320;53.954;9.506;2022-12-24T13:30:42;100883.47;;;5.64;100.00
29315;BME280;16320;53.954;9.506;2022-12-24T13:33:49;100892.09;;;5.66;100.00
29315;BME280;16320;53.954;9.506;2022-12-24T13:37:18;100891.03;;;5.74;100.00
29315;BME280;16320;53.954;9.506;2022-12-24T13:40:25;100900.50;;;5.76;100.00
29315;BME280;16320;53.954;9.506;2022-12-24T13:47:18;100911.56;;;5.84;100.00
29315;BME280;16320;53.954;9.506;2022-12-24T13:53:58;100925.28;;;5.91;100.00
29315;BME280;16320;53.954;9.506;2022-12-24T14:00:57;100908.03;;;5.87;100.00
29315;BME280;16320;53.954;9.506;2022-12-24T14:04:07;100918.38;;;5.90;100.00
29315;BME280;16320;53.954;9.506;2022-12-24T14:07:18;100910.41;;;5.96;100.00
29315;BME280;16320;53.954;9.506;2022-12-24T14:10:29;100914.75;;;5.94;100.00
29315;BME280;16320;53.954;9.506;2022-12-24T14:16:47;100926.09;;;5.93;100.00
29315;BME280;16320;53.954;9.506;2022-12-24T14:19:59;100923.50;;;5.93;100.00
29315;BME280;16320;53.954;9.506;2022-12-24T14:23:14;100921.63;;;5.98;100.00
29315;BME280;16320;53.954;9.506;2022-12-24T14:26:32;100931.19;;;5.98;100.00
29315;BME280;16320;53.954;9.506;2022-12-24T14:30:18;100938.22;;;5.94;100.00
29315;BME280;16320;53.954;9.506;2022-12-24T14:33:30;100953.69;;;6.02;100.00
29315;BME280;16320;53.954;9.506;2022-12-24T14:36:35;100961.47;;;6.03;100.00
29315;BME280;16320;53.954;9.506;2022-12-24T14:39:46;100952.75;;;6.04;100.00
29315;BME280;16320;53.954;9.506;2022-12-24T14:43:22;100960.47;;;6.08;100.00
29315;BME280;16320;53.954;9.506;2022-12-24T14:46:57;100974.19;;;6.14;100.00
29315;BME280;16320;53.954;9.506;2022-12-24T14:50:33;100983.59;;;6.20;100.00
29315;BME280;16320;53.954;9.506;2022-12-24T14:54:26;100989.75;;;6.17;100.00
29315;BME280;16320;53.954;9.506;2022-12-24T14:57:37;100992.38;;;6.17;100.00
29315;BME280;16320;53.954;9.506;2022-12-24T15:00:42;101002.69;;;6.20;100.00
29315;BME280;16320;53.954;9.506;2022-12-24T15:04:13;101011.47;;;6.18;100.00
29315;BME280;16320;53.954;9.506;2022-12-24T15:07:18;101011.47;;;6.18;100.00
29315;BME280;16320;53.954;9.506;2022-12-24T15:10:31;101014.88;;;6.20;100.00
29315;BME280;16320;53.954;9.506;2022-12-24T15:13:43;101022.72;;;6.20;100.00
29315;BME280;16320;53.954;9.506;2022-12-24T15:16:56;101032.25;;;6.21;100.00
29315;BME280;16320;53.954;9.506;2022-12-24T15:20:05;101034.78;;;6.24;100.00
29315;BME280;16320;53.954;9.506;2022-12-24T15:23:35;101038.91;;;6.31;100.00
29315;BME280;16320;53.954;9.506;2022-12-24T15:26:43;101042.31;;;6.33;100.00
29315;BME280;16320;53.954;9.506;2022-12-24T15:29:56;101049.34;;;6.31;100.00
29315;BME280;16320;53.954;9.506;2022-12-24T15:33:02;101057.88;;;6.36;100.00
29315;BME280;16320;53.954;9.506;2022-12-24T15:36:08;101075.09;;;6.44;100.00
29315;BME280;16320;53.954;9.506;2022-12-24T15:39:15;101073.28;;;6.46;100.00
29315;BME280;16320;53.954;9.506;2022-12-24T15:42:23;101080.22;;;6.47;100.00
29315;BME280;16320;53.954;9.506;2022-12-24T15:45:41;101083.47;;;6.55;100.00
29315;BME280;16320;53.954;9.506;2022-12-24T15:48:48;101093.81;;;6.58;100.00
29315;BME280;16320;53.954;9.506;2022-12-24T15:52:00;101102.44;;;6.60;100.00
29315;BME280;16320;53.954;9.506;2022-12-24T15:55:35;101100.56;;;6.65;100.00
29315;BME280;16320;53.954;9.506;2022-12-24T15:58:43;101094.41;;;6.68;100.00
29315;BME280;16320;53.954;9.506;2022-12-24T16:01:50;101107.25;;;6.74;100.00
29315;BME280;16320;53.954;9.506;2022-12-24T16:08:38;101117.22;;;6.91;100.00
29315;BME280;16320;53.954;9.506;2022-12-24T16:11:43;101121.56;;;6.90;100.00
29315;BME280;16320;53.954;9.506;2022-12-24T16:14:58;101125.84;;;6.93;100.00
29315;BME280;16320;53.954;9.506;2022-12-24T16:18:04;101135.53;;;6.89;100.00
29315;BME280;16320;53.954;9.506;2022-12-24T16:21:09;101137.34;;;6.87;100.00
29315;BME280;16320;53.954;9.506;2022-12-24T16:24:26;101146.91;;;6.87;100.00
29315;BME280;16320;53.954;9.506;2022-12-24T16:27:31;101160.19;;;6.79;100.00
29315;BME280;16320;53.954;9.506;2022-12-24T16:30:35;101162.66;;;6.84;100.00
29315;BME280;16320;53.954;9.506;2022-12-24T16:33:40;101171.50;;;6.80;100.00
29315;BME280;16320;53.954;9.506;2022-12-24T16:36:45;101178.16;;;6.90;100.00
29315;BME280;16320;53.954;9.506;2022-12-24T16:39:50;101180.81;;;6.88;100.00
29315;BME280;16320;53.954;9.506;2022-12-24T16:42:57;101189.56;;;6.87;100.00
29315;BME280;16320;53.954;9.506;2022-12-24T16:46:21;101193.66;;;6.96;100.00
29315;BME280;16320;53.954;9.506;2022-12-24T16:49:26;101196.34;;;6.93;100.00
29315;BME280;16320;53.954;9.506;2022-12-24T16:52:31;101208.59;;;6.91;100.00
29315;BME280;16320;53.954;9.506;2022-12-24T16:55:39;101218.22;;;6.89;100.00
29315;BME280;16320;53.954;9.506;2022-12-24T16:58:43;101219.09;;;6.89;100.00
29315;BME280;16320;53.954;9.506;2022-12-24T17:01:49;101218.06;;;6.95;100.00
29315;BME280;16320;53.954;9.506;2022-12-24T17:04:54;101218.06;;;6.95;100.00
29315;BME280;16320;53.954;9.506;2022-12-24T17:08:00;101231.88;;;6.99;100.00
29315;BME280;16320;53.954;9.506;2022-12-24T17:11:04;101237.25;;;6.94;100.00
29315;BME280;16320;53.954;9.506;2022-12-24T17:14:11;101244.28;;;6.90;100.00
29315;BME280;16320;53.954;9.506;2022-12-24T17:17:27;101243.44;;;6.90;100.00
29315;BME280;16320;53.954;9.506;2022-12-24T17:20:32;101253.78;;;6.94;100.00
29315;BME280;16320;53.954;9.506;2022-12-24T17:23:40;101259.91;;;6.92;100.00
29315;BME280;16320;53.954;9.506;2022-12-24T17:26:45;101262.56;;;6.90;100.00
29315;BME280;16320;53.954;9.506;2022-12-24T17:29:49;101267.03;;;6.87;100.00
29315;BME280;16320;53.954;9.506;2022-12-24T17:32:53;101266.09;;;6.89;100.00
29315;BME280;16320;53.954;9.506;2022-12-24T17:35:58;101273.03;;;6.90;100.00
29315;BME280;16320;53.954;9.506;2022-12-24T17:39:02;101276.59;;;6.88;100.00
29315;BME280;16320;53.954;9.506;2022-12-24T17:42:06;101280.09;;;6.87;100.00
29315;BME280;16320;53.954;9.506;2022-12-24T17:45:11;101282.53;;;6.93;100.00
29315;BME280;16320;53.954;9.506;2022-12-24T17:48:15;101288.53;;;6.96;100.00
29315;BME280;16320;53.954;9.506;2022-12-24T17:51:21;101290.50;;;6.88;100.00